createdAt,value
2018-10-07T00:00:07.009Z,93.30
2018-10-07T00:02:11.833Z,93.40
2018-10-07T00:04:16.174Z,93.60
2018-10-07T00:06:20.322Z,93.30
2018-10-07T00:08:26.156Z,93.00
2018-10-07T00:10:30.456Z,92.80
2018-10-07T00:12:34.768Z,92.60
2018-10-07T00:14:39.079Z,92.50
2018-10-07T00:16:43.433Z,92.60
2018-10-07T00:18:47.758Z,92.70
2018-10-07T00:20:55.603Z,92.70
2018-10-07T00:22:59.719Z,92.70
2018-10-07T00:25:04.004Z,92.70
2018-10-07T00:27:09.437Z,92.50
2018-10-07T00:29:13.548Z,92.60
2018-10-07T00:31:19.565Z,92.70
2018-10-07T00:33:24.340Z,92.50
2018-10-07T00:35:36.664Z,92.70
2018-10-07T00:37:40.859Z,92.70
2018-10-07T00:39:45.545Z,92.50
2018-10-07T00:41:49.625Z,92.80
2018-10-07T00:43:56.612Z,92.90
2018-10-07T00:46:01.065Z,92.90
2018-10-07T00:48:12.424Z,92.80
2018-10-07T00:50:19.449Z,92.80
2018-10-07T00:52:25.318Z,92.70
2018-10-07T00:54:33.697Z,92.50
2018-10-07T00:56:39.965Z,92.50
2018-10-07T00:58:45.847Z,92.60
2018-10-07T01:00:50.012Z,92.60
2018-10-07T01:02:54.825Z,92.40
2018-10-07T01:05:00.176Z,92.30
2018-10-07T01:07:04.492Z,92.40
2018-10-07T01:09:10.711Z,92.30
2018-10-07T01:11:16.763Z,92.30
2018-10-07T01:13:20.955Z,92.40
2018-10-07T01:15:25.494Z,92.50
2018-10-07T01:17:30.170Z,92.50
2018-10-07T01:19:34.270Z,92.40
2018-10-07T01:21:45.413Z,92.40
2018-10-07T01:23:51.125Z,92.40
2018-10-07T01:25:55.249Z,92.70
2018-10-07T01:28:02.968Z,93.00
2018-10-07T01:30:07.944Z,93.10
2018-10-07T01:32:12.281Z,92.90
2018-10-07T01:34:16.611Z,92.80
2018-10-07T01:36:21.409Z,92.80
2018-10-07T01:38:25.751Z,92.90
2018-10-07T01:40:30.130Z,93.10
2018-10-07T01:42:35.510Z,93.30
2018-10-07T01:44:39.855Z,93.50
2018-10-07T01:46:49.029Z,93.80
2018-10-07T01:48:54.385Z,93.80
2018-10-07T01:51:01.927Z,93.70
2018-10-07T01:53:06.016Z,94.00
2018-10-07T01:55:10.622Z,94.00
2018-10-07T01:57:16.983Z,94.70
2018-10-07T01:59:21.340Z,95.60
2018-10-07T02:01:27.066Z,95.30
2018-10-07T02:03:43.170Z,95.30
2018-10-07T02:05:48.094Z,95.20
2018-10-07T02:07:53.697Z,95.30
2018-10-07T02:09:58.077Z,95.40
2018-10-07T02:12:07.081Z,95.40
2018-10-07T02:14:11.536Z,95.80
2018-10-07T02:16:15.771Z,96.00
2018-10-07T02:18:19.998Z,96.00
2018-10-07T02:20:26.930Z,96.10
2018-10-07T02:22:33.680Z,96.00
2018-10-07T02:24:50.262Z,96.30
2018-10-07T02:27:03.453Z,96.50
2018-10-07T02:29:08.005Z,96.70
2018-10-07T02:31:13.072Z,96.80
2018-10-07T02:33:21.205Z,97.10
2018-10-07T02:35:25.327Z,96.90
2018-10-07T02:37:29.525Z,97.00
2018-10-07T02:39:41.777Z,96.90
2018-10-07T02:41:46.088Z,97.00
2018-10-07T02:43:50.373Z,97.30
2018-10-07T02:45:54.698Z,97.40
2018-10-07T02:47:59.010Z,97.30
2018-10-07T02:50:17.224Z,97.20
2018-10-07T02:52:26.990Z,97.30
2018-10-07T02:54:31.142Z,97.10
2018-10-07T02:56:35.467Z,97.00
2018-10-07T02:58:39.948Z,97.00
2018-10-07T03:00:45.895Z,97.00
2018-10-07T03:02:50.977Z,97.00
2018-10-07T03:04:55.432Z,96.80
2018-10-07T03:06:59.618Z,96.90
2018-10-07T03:09:04.010Z,96.50
2018-10-07T03:11:08.505Z,96.40
2018-10-07T03:13:12.714Z,96.20
2018-10-07T03:15:17.581Z,95.90
2018-10-07T03:17:23.220Z,95.90
2018-10-07T03:19:27.388Z,96.10
2018-10-07T03:21:31.947Z,97.40
2018-10-07T03:23:37.358Z,98.30
2018-10-07T03:25:42.467Z,98.60
2018-10-07T03:27:48.650Z,98.70
2018-10-07T03:29:55.419Z,98.30
2018-10-07T03:32:02.570Z,97.70
2018-10-07T03:34:13.588Z,97.10
2018-10-07T03:36:17.847Z,96.70
2018-10-07T03:38:22.050Z,96.80
2018-10-07T03:40:27.765Z,96.30
2018-10-07T03:42:34.362Z,96.40
2018-10-07T03:44:40.542Z,96.40
2018-10-07T03:46:45.531Z,96.80
2018-10-07T03:48:51.437Z,96.20
2018-10-07T03:50:59.068Z,96.20
2018-10-07T03:53:03.406Z,95.90
2018-10-07T03:55:10.209Z,95.80
2018-10-07T03:57:14.338Z,95.70
2018-10-07T03:59:19.360Z,95.70
2018-10-07T04:01:23.482Z,96.00
2018-10-07T04:03:27.563Z,95.70
2018-10-07T04:05:31.629Z,95.50
2018-10-07T04:07:36.168Z,95.40
2018-10-07T04:09:40.553Z,95.20
2018-10-07T04:11:44.667Z,95.20
2018-10-07T04:13:49.073Z,95.10
2018-10-07T04:15:53.879Z,95.40
2018-10-07T04:17:57.994Z,96.10
2018-10-07T04:20:02.402Z,96.70
2018-10-07T04:22:08.127Z,96.30
2018-10-07T04:24:12.632Z,96.70
2018-10-07T04:26:17.603Z,96.80
2018-10-07T04:28:22.798Z,97.00
2018-10-07T04:30:31.017Z,97.20
2018-10-07T04:32:37.077Z,97.40
2018-10-07T04:34:41.980Z,97.60
2018-10-07T04:36:46.083Z,97.70
2018-10-07T04:38:51.703Z,98.10
2018-10-07T04:40:58.500Z,98.30
2018-10-07T04:43:04.009Z,98.30
2018-10-07T04:45:12.516Z,98.20
2018-10-07T04:47:16.735Z,98.10
2018-10-07T04:49:20.889Z,98.40
2018-10-07T04:51:26.057Z,98.60
2018-10-07T04:53:30.420Z,98.40
2018-10-07T04:55:35.236Z,98.20
2018-10-07T04:57:39.833Z,98.20
2018-10-07T04:59:44.167Z,98.10
2018-10-07T05:01:48.463Z,97.90
2018-10-07T05:03:53.169Z,98.10
2018-10-07T05:05:58.464Z,98.00
2018-10-07T05:08:04.522Z,97.90
2018-10-07T05:11:19.134Z,97.90
2018-10-07T05:13:26.877Z,97.80
2018-10-07T05:15:32.191Z,97.80
2018-10-07T05:17:37.255Z,97.60
2018-10-07T05:19:41.378Z,97.40
2018-10-07T05:21:46.355Z,97.10
2018-10-07T05:23:52.474Z,97.30
2018-10-07T05:28:11.036Z,97.60
2018-10-07T05:30:15.209Z,97.90
2018-10-07T05:32:20.174Z,97.70
2018-10-07T05:34:24.792Z,97.60
2018-10-07T05:36:32.863Z,97.10
2018-10-07T05:38:37.318Z,96.70
2018-10-07T05:40:44.298Z,96.40
2018-10-07T05:42:48.464Z,96.40
2018-10-07T05:44:52.594Z,96.70
2018-10-07T05:46:56.781Z,96.50
2018-10-07T05:49:00.893Z,96.40
2018-10-07T05:51:06.694Z,96.30
2018-10-07T05:53:13.250Z,97.00
2018-10-07T05:55:17.439Z,97.40
2018-10-07T05:57:23.345Z,97.30
2018-10-07T05:59:28.519Z,97.00
2018-10-07T06:01:43.792Z,97.10
2018-10-07T06:03:57.605Z,97.50
2018-10-07T06:06:02.420Z,97.30
2018-10-07T06:08:07.580Z,96.80
2018-10-07T06:10:16.228Z,96.50
2018-10-07T06:12:20.549Z,96.30
2018-10-07T06:14:36.088Z,96.30
2018-10-07T06:16:42.840Z,96.50
2018-10-07T06:18:48.980Z,97.10
2018-10-07T06:21:03.555Z,97.60
2018-10-07T06:23:13.824Z,97.60
2018-10-07T06:25:22.791Z,97.50
2018-10-07T06:27:30.966Z,97.30
2018-10-07T06:29:36.496Z,97.00
2018-10-07T06:31:41.540Z,96.60
2018-10-07T06:33:48.725Z,96.40
2018-10-07T06:35:53.017Z,96.30
2018-10-07T06:37:57.904Z,96.00
2018-10-07T06:40:02.732Z,95.70
2018-10-07T06:42:08.172Z,95.50
2018-10-07T06:44:13.953Z,95.20
2018-10-07T06:46:20.099Z,94.90
2018-10-07T06:48:29.032Z,95.00
2018-10-07T06:50:36.538Z,94.90
2018-10-07T06:52:49.637Z,94.60
2018-10-07T06:54:55.159Z,94.80
2018-10-07T06:56:59.578Z,94.50
2018-10-07T06:59:06.720Z,94.30
2018-10-07T07:01:11.347Z,94.20
2018-10-07T07:03:20.880Z,94.00
2018-10-07T07:05:27.694Z,94.00
2018-10-07T07:07:36.053Z,93.80
2018-10-07T07:09:43.698Z,93.80
2018-10-07T07:11:47.981Z,93.70
2018-10-07T07:13:55.453Z,93.80
2018-10-07T07:16:02.374Z,93.90
2018-10-07T07:18:06.683Z,93.50
2018-10-07T07:20:11.000Z,93.40
2018-10-07T07:22:20.200Z,93.50
2018-10-07T07:24:26.318Z,93.20
2018-10-07T07:26:30.701Z,93.50
2018-10-07T07:28:36.185Z,93.60
2018-10-07T07:30:41.314Z,93.60
2018-10-07T07:32:45.576Z,93.50
2018-10-07T07:34:54.832Z,93.50
2018-10-07T07:37:00.489Z,93.20
2018-10-07T07:39:05.719Z,93.10
2018-10-07T07:41:10.715Z,92.90
2018-10-07T07:43:15.126Z,93.00
2018-10-07T07:45:21.225Z,93.00
2018-10-07T07:47:25.541Z,92.70
2018-10-07T07:49:29.700Z,92.70
2018-10-07T07:51:34.603Z,92.80
2018-10-07T07:53:44.909Z,93.10
2018-10-07T07:55:49.321Z,92.60
2018-10-07T07:57:53.778Z,92.10
2018-10-07T07:59:58.583Z,92.10
2018-10-07T08:02:02.699Z,91.70
2018-10-07T08:04:07.106Z,91.40
2018-10-07T08:06:12.045Z,91.60
2018-10-07T08:08:16.803Z,91.50
2018-10-07T08:10:21.097Z,91.20
2018-10-07T08:12:25.402Z,91.20
2018-10-07T08:14:31.869Z,91.00
2018-10-07T08:16:36.894Z,90.90
2018-10-07T08:18:41.475Z,90.90
2018-10-07T08:20:46.790Z,90.80
2018-10-07T08:22:53.777Z,90.90
2018-10-07T08:24:59.269Z,90.70
2018-10-07T08:27:04.210Z,90.70
2018-10-07T08:29:08.272Z,91.00
2018-10-07T08:31:12.833Z,90.80
2018-10-07T08:33:17.052Z,90.70
2018-10-07T08:35:21.919Z,90.60
2018-10-07T08:37:26.222Z,90.50
2018-10-07T08:39:31.098Z,90.30
2018-10-07T08:41:36.392Z,90.30
2018-10-07T08:43:46.748Z,90.20
2018-10-07T08:45:55.579Z,90.00
2018-10-07T08:48:00.789Z,90.00
2018-10-07T08:50:11.001Z,89.10
2018-10-07T08:52:16.796Z,88.90
2018-10-07T08:54:21.043Z,89.00
2018-10-07T08:56:25.787Z,89.10
2018-10-07T08:58:30.276Z,89.10
2018-10-07T09:00:35.079Z,88.60
2018-10-07T09:02:42.576Z,87.80
2018-10-07T09:04:47.495Z,87.10
2018-10-07T09:06:51.734Z,87.50
2018-10-07T09:08:58.764Z,87.00
2018-10-07T09:11:03.099Z,88.00
2018-10-07T09:13:07.740Z,88.10
2018-10-07T09:15:18.589Z,88.00
2018-10-07T09:17:24.699Z,88.50
2018-10-07T09:19:36.781Z,88.10
2018-10-07T09:21:46.803Z,89.20
2018-10-07T09:23:52.988Z,89.50
2018-10-07T09:25:57.887Z,88.70
2018-10-07T09:28:04.521Z,88.00
2018-10-07T09:30:12.767Z,87.70
2018-10-07T09:32:17.560Z,88.10
2018-10-07T09:34:23.401Z,87.50
2018-10-07T09:36:28.808Z,86.80
2018-10-07T09:38:33.071Z,86.30
2018-10-07T09:40:39.422Z,85.50
2018-10-07T09:42:44.340Z,86.00
2018-10-07T09:44:48.676Z,86.20
2018-10-07T09:46:55.056Z,84.90
2018-10-07T09:49:00.428Z,84.80
2018-10-07T09:51:05.192Z,84.80
2018-10-07T09:53:09.462Z,85.10
2018-10-07T09:55:13.668Z,84.80
2018-10-07T09:57:17.897Z,85.00
2018-10-07T09:59:24.346Z,85.20
2018-10-07T10:01:29.226Z,86.00
2018-10-07T10:03:33.495Z,87.20
2018-10-07T10:05:42.437Z,88.10
2018-10-07T10:07:49.316Z,88.60
2018-10-07T10:09:56.646Z,89.10
2018-10-07T10:12:01.708Z,89.90
2018-10-07T10:14:06.481Z,90.00
2018-10-07T10:16:10.843Z,90.10
2018-10-07T10:18:25.626Z,90.10
2018-10-07T10:21:06.010Z,90.00
2018-10-07T10:23:18.467Z,90.20
2018-10-07T10:26:31.257Z,90.40
2018-10-07T10:28:49.586Z,90.50
2018-10-07T10:31:13.205Z,90.30
2018-10-07T10:34:30.226Z,90.30
2018-10-07T10:36:49.201Z,90.40
2018-10-07T10:39:38.390Z,90.80
2018-10-07T10:41:50.607Z,91.00
2018-10-07T10:44:03.243Z,91.00
2018-10-07T10:46:17.615Z,90.90
2018-10-07T10:49:45.352Z,91.00
2018-10-07T10:52:16.295Z,90.80
2018-10-07T10:54:28.883Z,90.80
2018-10-07T10:56:40.719Z,90.90
2018-10-07T11:00:57.886Z,90.80
2018-10-07T11:05:14.838Z,91.10
2018-10-07T11:07:30.820Z,91.00
2018-10-07T11:09:47.378Z,91.00
2018-10-07T11:11:58.479Z,90.90
2018-10-07T11:14:08.805Z,90.80
2018-10-07T11:20:37.582Z,90.30
2018-10-07T11:24:57.372Z,90.00
2018-10-07T11:27:18.373Z,86.60
2018-10-07T11:31:35.737Z,85.50
2018-10-07T11:33:52.372Z,83.70
2018-10-07T11:36:10.362Z,80.90
2018-10-07T11:38:24.276Z,81.80
2018-10-07T11:41:40.367Z,82.00
2018-10-07T11:43:54.802Z,83.50
2018-10-07T11:48:17.757Z,83.20
2018-10-07T11:50:34.056Z,83.00
2018-10-07T11:52:59.250Z,82.70
2018-10-07T11:55:07.536Z,82.60
2018-10-07T11:57:13.021Z,82.80
2018-10-07T11:59:17.717Z,81.90
2018-10-07T12:01:22.319Z,81.50
2018-10-07T12:03:26.595Z,81.30
2018-10-07T12:05:31.685Z,81.20
2018-10-07T12:07:36.107Z,81.00
2018-10-07T12:09:40.922Z,80.60
2018-10-07T12:11:46.351Z,80.00
2018-10-07T12:13:56.713Z,79.20
2018-10-07T12:16:01.041Z,79.80
2018-10-07T12:18:10.709Z,80.00
2018-10-07T12:20:14.932Z,79.60
2018-10-07T12:22:19.238Z,79.00
2018-10-07T12:24:24.120Z,79.30
2018-10-07T12:26:28.535Z,79.60
2018-10-07T12:28:32.864Z,79.50
2018-10-07T12:30:37.550Z,79.10
2018-10-07T12:32:43.415Z,79.10
2018-10-07T12:34:48.513Z,78.70
2018-10-07T12:36:53.930Z,77.20
2018-10-07T12:38:58.283Z,76.90
2018-10-07T12:41:04.150Z,76.30
2018-10-07T12:43:08.983Z,76.10
2018-10-07T12:45:15.325Z,76.50
2018-10-07T12:47:20.581Z,77.10
2018-10-07T12:49:27.246Z,77.80
2018-10-07T12:51:32.457Z,77.20
2018-10-07T12:55:58.267Z,78.00
2018-10-07T12:58:03.662Z,78.40
2018-10-07T13:00:09.554Z,79.10
2018-10-07T13:02:15.167Z,79.90
2018-10-07T13:04:21.035Z,80.00
2018-10-07T13:06:26.313Z,80.00
2018-10-07T13:08:31.534Z,79.90
2018-10-07T13:10:37.519Z,79.90
2018-10-07T13:12:42.417Z,80.60
2018-10-07T13:14:47.768Z,81.40
2018-10-07T13:16:52.924Z,81.90
2018-10-07T13:18:57.519Z,82.10
2018-10-07T13:21:02.200Z,82.80
2018-10-07T13:23:07.507Z,82.80
2018-10-07T13:25:13.469Z,82.90
2018-10-07T13:27:19.310Z,83.80
2018-10-07T13:29:24.574Z,84.00
2018-10-07T13:31:29.985Z,84.20
2018-10-07T13:33:34.667Z,84.90
2018-10-07T13:35:40.448Z,85.20
2018-10-07T13:37:48.002Z,85.80
2018-10-07T13:39:57.519Z,86.20
2018-10-07T13:42:03.385Z,86.80
2018-10-07T13:44:07.684Z,87.50
2018-10-07T13:46:11.956Z,88.00
2018-10-07T13:48:18.435Z,88.40
2018-10-07T13:50:22.613Z,89.10
2018-10-07T13:52:27.999Z,89.70
2018-10-07T13:54:33.023Z,90.00
2018-10-07T13:56:38.143Z,90.10
2018-10-07T13:58:43.630Z,90.30
2018-10-07T14:00:47.853Z,90.40
2018-10-07T14:02:52.787Z,90.50
2018-10-07T14:04:57.008Z,90.60
2018-10-07T14:07:01.346Z,90.70
2018-10-07T14:09:07.675Z,90.70
2018-10-07T14:11:13.897Z,90.90
2018-10-07T14:13:18.779Z,91.20
2018-10-07T14:15:25.730Z,91.20
2018-10-07T14:17:30.586Z,91.20
2018-10-07T14:19:40.517Z,91.20
2018-10-07T14:21:46.474Z,90.90
2018-10-07T14:23:53.170Z,91.00
2018-10-07T14:25:58.370Z,91.10
2018-10-07T14:28:04.394Z,91.30
2018-10-07T14:30:14.020Z,91.40
2018-10-07T14:32:18.384Z,91.20
2018-10-07T14:34:25.081Z,91.50
2018-10-07T14:36:33.024Z,91.40
2018-10-07T14:38:37.381Z,91.30
2018-10-07T14:40:42.399Z,91.20
2018-10-07T14:42:48.057Z,90.90
2018-10-07T14:44:52.443Z,90.70
2018-10-07T14:46:58.283Z,90.80
2018-10-07T14:49:03.870Z,90.90
2018-10-07T14:51:09.252Z,90.70
2018-10-07T14:53:13.825Z,90.80
2018-10-07T14:55:18.432Z,90.80
2018-10-07T14:57:22.633Z,90.90
2018-10-07T14:59:28.067Z,90.90
2018-10-07T15:01:34.302Z,90.80
2018-10-07T15:03:39.622Z,90.80
2018-10-07T15:05:45.979Z,90.60
2018-10-07T15:07:50.641Z,90.50
2018-10-07T15:09:56.688Z,90.30
2018-10-07T15:12:01.269Z,90.00
2018-10-07T15:14:05.978Z,89.70
2018-10-07T15:16:10.477Z,88.90
2018-10-07T15:18:16.330Z,86.70
2018-10-07T15:20:22.190Z,84.60
2018-10-07T15:22:27.755Z,83.80
2018-10-07T15:24:33.210Z,83.40
2018-10-07T15:26:39.188Z,83.70
2018-10-07T15:28:43.411Z,83.40
2018-10-07T15:30:49.206Z,82.90
2018-10-07T15:33:00.380Z,82.40
2018-10-07T15:35:04.834Z,82.10
2018-10-07T15:37:09.307Z,81.30
2018-10-07T15:39:14.869Z,80.60
2018-10-07T15:41:19.170Z,80.40
2018-10-07T15:43:23.580Z,80.10
2018-10-07T15:45:29.974Z,80.40
2018-10-07T15:47:34.189Z,79.30
2018-10-07T15:49:39.880Z,78.50
2018-10-07T15:51:45.419Z,78.70
2018-10-07T15:53:50.560Z,78.40
2018-10-07T15:55:54.926Z,78.40
2018-10-07T15:57:59.393Z,78.90
2018-10-07T16:00:03.642Z,79.00
2018-10-07T16:02:07.894Z,79.20
2018-10-07T16:04:13.773Z,80.00
2018-10-07T16:06:20.392Z,79.40
2018-10-07T16:08:28.664Z,80.10
2018-10-07T16:10:33.264Z,80.20
2018-10-07T16:12:37.817Z,80.80
2018-10-07T16:14:42.211Z,81.70
2018-10-07T16:16:47.788Z,82.90
2018-10-07T16:18:54.634Z,84.30
2018-10-07T16:20:59.433Z,85.20
2018-10-07T16:23:06.009Z,86.00
2018-10-07T16:25:11.403Z,86.60
2018-10-07T16:27:17.401Z,86.90
2018-10-07T16:29:23.112Z,87.60
2018-10-07T16:31:28.985Z,88.10
2018-10-07T16:33:33.258Z,88.70
2018-10-07T16:35:45.530Z,88.40
2018-10-07T16:37:52.348Z,88.40
2018-10-07T16:39:56.526Z,88.50
2018-10-07T16:42:05.439Z,88.80
2018-10-07T16:44:10.516Z,89.00
2018-10-07T16:46:15.811Z,89.00
2018-10-07T16:48:22.731Z,89.10
2018-10-07T16:50:27.301Z,89.20
2018-10-07T16:52:32.289Z,88.90
2018-10-07T16:54:37.977Z,89.20
2018-10-07T16:56:42.893Z,89.20
2018-10-07T16:58:47.323Z,89.00
2018-10-07T17:00:52.197Z,89.20
2018-10-07T17:02:57.588Z,89.20
2018-10-07T17:05:01.920Z,89.00
2018-10-07T17:07:07.295Z,89.20
2018-10-07T17:09:13.449Z,89.50
2018-10-07T17:11:20.389Z,88.50
2018-10-07T17:13:25.727Z,88.40
2018-10-07T17:15:29.979Z,88.20
2018-10-07T17:17:37.162Z,87.90
2018-10-07T17:19:43.330Z,87.50
2018-10-07T17:21:48.877Z,87.00
2018-10-07T17:23:54.713Z,87.30
2018-10-07T17:26:00.775Z,87.20
2018-10-07T17:28:07.321Z,87.00
2018-10-07T17:30:15.520Z,86.80
2018-10-07T17:32:20.741Z,86.90
2018-10-07T17:34:29.646Z,86.80
2018-10-07T17:36:35.457Z,87.20
2018-10-07T17:38:40.727Z,87.30
2018-10-07T17:40:47.237Z,87.30
2018-10-07T17:42:53.419Z,87.40
2018-10-07T17:44:58.970Z,88.00
2018-10-07T17:47:04.738Z,88.20
2018-10-07T17:49:11.479Z,88.40
2018-10-07T17:51:20.014Z,88.60
2018-10-07T17:53:25.075Z,88.80
2018-10-07T17:55:31.545Z,88.80
2018-10-07T17:57:36.257Z,88.90
2018-10-07T17:59:41.747Z,89.20
2018-10-07T18:01:47.556Z,89.40
2018-10-07T18:03:53.364Z,89.60
2018-10-07T18:05:58.361Z,88.90
2018-10-07T18:08:03.685Z,89.00
2018-10-07T18:10:09.834Z,88.80
2018-10-07T18:12:14.407Z,88.90
2018-10-07T18:14:25.705Z,89.20
2018-10-07T18:16:34.675Z,89.40
2018-10-07T18:20:51.177Z,90.00
2018-10-07T18:22:57.079Z,90.20
2018-10-07T18:25:03.156Z,90.30
2018-10-07T18:27:08.109Z,90.40
2018-10-07T18:29:12.509Z,90.70
2018-10-07T18:31:17.937Z,90.90
2018-10-07T18:33:23.310Z,91.20
2018-10-07T18:35:29.459Z,91.30
2018-10-07T18:37:33.753Z,91.40
2018-10-07T18:39:44.504Z,91.60
2018-10-07T18:41:49.693Z,91.90
2018-10-07T18:43:57.784Z,92.20
2018-10-07T18:46:06.984Z,92.30
2018-10-07T18:48:11.378Z,92.30
2018-10-07T18:50:16.371Z,92.50
2018-10-07T18:52:22.331Z,92.60
2018-10-07T18:54:26.667Z,92.70
2018-10-07T18:56:32.193Z,92.90
2018-10-07T18:58:39.468Z,93.00
2018-10-07T19:00:48.612Z,93.00
2018-10-07T19:02:53.779Z,92.90
2018-10-07T19:05:01.372Z,93.10
2018-10-07T19:07:07.827Z,93.10
2018-10-07T19:09:13.492Z,93.20
2018-10-07T19:11:19.499Z,93.20
2018-10-07T19:13:25.758Z,93.30
2018-10-07T19:15:31.360Z,93.50
2018-10-07T19:17:38.265Z,93.50
2018-10-07T19:19:43.239Z,93.50
2018-10-07T19:21:48.859Z,93.50
2018-10-07T19:23:55.685Z,93.50
2018-10-07T19:26:02.084Z,93.50
2018-10-07T19:28:07.319Z,93.60
2018-10-07T19:30:14.409Z,93.60
2018-10-07T19:32:20.380Z,93.60
2018-10-07T19:34:26.428Z,93.60
2018-10-07T19:36:38.553Z,93.70
2018-10-07T19:38:46.439Z,93.70
2018-10-07T19:40:53.304Z,93.60
2018-10-07T19:43:02.676Z,93.70
2018-10-07T19:45:14.376Z,93.70
2018-10-07T19:47:19.852Z,93.80
2018-10-07T19:49:24.569Z,93.80
2018-10-07T19:51:31.337Z,93.90
2018-10-07T19:53:38.977Z,93.80
2018-10-07T19:55:43.654Z,93.80
2018-10-07T19:57:50.439Z,93.80
2018-10-07T19:59:57.682Z,93.70
2018-10-07T20:02:06.489Z,94.10
2018-10-07T20:04:12.129Z,93.70
2018-10-07T20:06:20.714Z,93.80
2018-10-07T20:08:27.449Z,93.80
2018-10-07T20:10:33.223Z,94.00
2018-10-07T20:12:39.712Z,94.10
2018-10-07T20:14:45.251Z,93.80
2018-10-07T20:16:53.177Z,93.90
2018-10-07T20:18:58.549Z,94.00
2018-10-07T20:21:03.198Z,94.10
2018-10-07T20:23:09.792Z,94.00
2018-10-07T20:25:14.591Z,94.00
2018-10-07T20:27:26.668Z,94.00
2018-10-07T20:29:32.146Z,93.90
2018-10-07T20:31:36.448Z,93.90
2018-10-07T20:33:43.775Z,93.90
2018-10-07T20:35:48.264Z,94.00
2018-10-07T20:37:53.925Z,94.00
2018-10-07T20:40:00.263Z,93.90
2018-10-07T20:42:06.921Z,94.00
2018-10-07T20:44:13.243Z,94.00
2018-10-07T20:46:18.614Z,94.10
2018-10-07T20:48:25.955Z,94.00
2018-10-07T20:50:30.608Z,94.20
2018-10-07T20:52:36.481Z,94.10
2018-10-07T20:54:41.990Z,94.10
2018-10-07T20:56:49.319Z,94.10
2018-10-07T20:58:56.530Z,94.10
2018-10-07T21:01:03.578Z,94.10
2018-10-07T21:03:10.118Z,94.20
2018-10-07T21:05:17.293Z,94.10
2018-10-07T21:07:24.289Z,94.40
2018-10-07T21:09:29.017Z,94.40
2018-10-07T21:11:34.087Z,94.50
2018-10-07T21:13:39.377Z,94.40
2018-10-07T21:15:43.735Z,94.40
2018-10-07T21:17:50.066Z,94.50
2018-10-07T21:19:58.395Z,94.60
2018-10-07T21:22:03.351Z,94.70
2018-10-07T21:24:08.120Z,94.70
2018-10-07T21:26:13.836Z,94.70
2018-10-07T21:28:18.221Z,94.70
2018-10-07T21:30:25.192Z,94.70
2018-10-07T21:32:30.198Z,94.70
2018-10-07T21:34:37.832Z,94.80
2018-10-07T21:36:42.509Z,94.70
2018-10-07T21:38:48.151Z,94.50
2018-10-07T21:40:53.941Z,94.40
2018-10-07T21:42:59.299Z,94.30
2018-10-07T21:45:07.022Z,94.20
2018-10-07T21:47:13.303Z,94.20
2018-10-07T21:49:17.500Z,94.40
2018-10-07T21:51:22.547Z,94.20
2018-10-07T21:53:27.435Z,94.20
2018-10-07T21:55:31.674Z,94.20
2018-10-07T21:57:36.394Z,94.40
2018-10-07T21:59:40.757Z,94.20
2018-10-07T22:01:44.954Z,94.10
2018-10-07T22:03:52.703Z,94.10
2018-10-07T22:05:56.934Z,94.10
2018-10-07T22:08:04.560Z,93.90
2018-10-07T22:10:11.118Z,94.00
2018-10-07T22:12:17.518Z,93.90
2018-10-07T22:14:24.867Z,93.70
2018-10-07T22:16:29.129Z,93.60
2018-10-07T22:18:33.307Z,93.70
2018-10-07T22:20:38.485Z,93.70
2018-10-07T22:22:43.912Z,93.70
2018-10-07T22:24:48.601Z,93.80
2018-10-07T22:26:53.719Z,93.70
2018-10-07T22:28:57.859Z,93.60
2018-10-07T22:31:04.475Z,93.60
2018-10-07T22:33:09.402Z,93.40
2018-10-07T22:35:16.514Z,93.60
2018-10-07T22:37:21.087Z,93.60
2018-10-07T22:39:26.651Z,93.50
2018-10-07T22:41:30.935Z,93.50
2018-10-07T22:43:37.747Z,93.60
2018-10-07T22:45:42.353Z,93.70
2018-10-07T22:47:48.186Z,93.70
2018-10-07T22:49:55.885Z,93.70
2018-10-07T22:52:01.184Z,94.00
2018-10-07T22:54:05.401Z,94.10
2018-10-07T22:56:11.943Z,94.20
2018-10-07T22:58:17.186Z,94.30
2018-10-07T23:00:24.522Z,94.30
2018-10-07T23:02:30.296Z,94.20
2018-10-07T23:04:35.188Z,94.10
2018-10-07T23:06:39.726Z,94.00
2018-10-07T23:08:44.618Z,94.10
2018-10-07T23:10:49.773Z,94.30
2018-10-07T23:12:55.924Z,94.40
2018-10-07T23:15:01.199Z,94.40
2018-10-07T23:17:05.632Z,94.50
2018-10-07T23:19:10.704Z,94.60
2018-10-07T23:21:18.755Z,94.50
2018-10-07T23:23:23.348Z,94.40
2018-10-07T23:25:27.563Z,94.60
2018-10-07T23:27:31.735Z,94.60
2018-10-07T23:29:36.235Z,94.60
2018-10-07T23:31:40.579Z,94.50
2018-10-07T23:33:44.819Z,94.50
2018-10-07T23:35:52.300Z,94.70
2018-10-07T23:37:56.407Z,94.80
2018-10-07T23:40:01.508Z,95.00
2018-10-07T23:42:06.496Z,94.90
2018-10-07T23:44:10.965Z,94.90
2018-10-07T23:46:15.789Z,95.00
2018-10-07T23:48:20.351Z,94.90
2018-10-07T23:50:25.383Z,95.10
2018-10-07T23:52:30.968Z,95.00
2018-10-07T23:54:45.994Z,94.60
2018-10-07T23:56:54.724Z,94.70
2018-10-07T23:59:01.000Z,94.90
